Fairborn, OH

1:10 PM EDT on October 31, 2014 (GMT -0400)
Wright-Patterson Air Force Base | Change Station
CLOSE
Current Station
Airport
Location: Wright-Patt AFB,
Elevation: 823 ft
Nearby Weather Stations

Elev 823 ft 39.83 °N, 84.05 °W | Updated 12 minutes ago

Rain
Rain
45 °F
Feels Like 41 °F
N
7
Wind Variable Wind from West

Today
High -- | Low -- °F
--% Chance of Precip.
Yesterday
High -- | Low -- °F
Precip. -- in
8:03 AM 6:35 PM
First Quarter, 57% visible
Pressure 29.94 in
Visibility 7.0 miles
Clouds Scattered Clouds 1100 ft
Mostly Cloudy 1500 ft
Overcast 2000 ft
Windchill 41 °F
Dew Point 41 °F
Humidity 87%
Rainfall 0.00 in
Snow Depth Not available.
UV 1 out of 12
Pollen .10 out of 12
Air Quality Not available.
Flu Activity Not available.
METAR KFFO 311658Z 26006KT 7SM -RA SCT011 BKN015 OVC020 07/05 A2991 RMK AO2A SLP136 P0000

More Conditions Fewer Conditions

Pressure 29.94 in
Visibility 7.0 miles
Clouds Scattered Clouds 1100 ft
Mostly Cloudy 1500 ft
Overcast 2000 ft
Windchill 41 °F
Dew Point 41 °F
Humidity 87%
Rainfall 0.00 in
Snow Depth Not available.
UV 1 out of 12
Pollen .10 out of 12
Air Quality Not available.
Flu Activity Not available.
METAR KFFO 311658Z 26006KT 7SM -RA SCT011 BKN015 OVC020 07/05 A2991 RMK AO2A SLP136 P0000

More Conditions Fewer Conditions

10-Day Weather Forecast

Almanac

Astronomy

Oct. 31, 2014 Rise Set
Actual Time
Civil Twilight
Nautical Twilight
Astronomical Twilight
Moon
Length of Visible Light
Length of Day
Tomorrow will be .
, % of the Moon is Illuminated

Today's Extremes

State Highs State Lows

Community

WunderPhotos

Upload Photos

1,766,668 photos uploaded!

WunderBlogs® & News

Nearby

Air Quality

  Air Quality AQ Index Pollutant
Not available.

Snow Depth

Station Depth Elevation

Earthquake Activity

City Distance Mag. Time & Date
Minimum magnitude displayed is 2.5.

Coastal Water Temperatures

Place Temperature

Nearby Weather Stations